Main page
METAR-TAF:

METAR-TAF

Airports :

Beijing Capital International Airport

Beijing, China

latitude: 39-56N, longitude: 116-17E, elevation: 55 m

Current weather observation

The report was made 25 minutes ago, at 19:00 UTC
Wind 2 kt from the North
Temperature 2°C
Humidity 93%
Pressure 1026 hPa
Visibility 10 km or more
no clouds below 1500 m and no cumulonimbus

METAR: ZBAA 171900Z 35001MPS CAVOK 02/01 Q1026 NOSIG

Time: 03:25 (19:25 UTC)

Forecast

The report was made 4 hours and 5 minutes ago, at 15:20 UTC
Forecast valid from 17 at 18 UTC to 18 at 18 UTC
Wind 6 kt from the North
Visibility 10 km or more
no clouds below 1500 m and no cumulonimbus

TAF: ZBAA 171520Z 1718/1818 36003MPS CAVOK TX20/1807Z TN03/1721Z

Weather observations and forecasts of more than 4000 airports (METAR and TAF reports).

The available stations are represented by yellow and red dots on the map.

Hover mouse over dot to see the name of the station.

Then click to see weather observations and forecasts.

To change the map : click on the green buttons with a black cross to zoom in, on the green button with a dash to zoom out, or on the green arrows for adjacent maps.


METAR-TAF: